createdAt,value
2022-07-29T00:02:30.116Z,20.60
2022-07-29T00:12:35.432Z,20.60
2022-07-29T00:22:40.061Z,20.40
2022-07-29T00:32:45.161Z,19.60
2022-07-29T00:42:52.207Z,18.80
2022-07-29T00:52:57.539Z,18.50
2022-07-29T01:03:01.384Z,18.60
2022-07-29T01:13:08.631Z,18.60
2022-07-29T01:23:58.125Z,18.60
2022-07-29T01:34:07.996Z,18.50
2022-07-29T01:44:20.191Z,18.70
2022-07-29T01:54:34.486Z,18.80
2022-07-29T02:04:39.573Z,18.90
2022-07-29T02:14:48.443Z,18.90
2022-07-29T02:24:53.694Z,18.80
2022-07-29T02:35:00.750Z,18.70
2022-07-29T02:45:05.628Z,18.40
2022-07-29T02:55:17.566Z,18.40
2022-07-29T03:05:23.147Z,18.40
2022-07-29T03:15:29.169Z,18.60
2022-07-29T03:25:33.526Z,18.70
2022-07-29T03:35:38.720Z,18.60
2022-07-29T03:45:45.046Z,18.60
2022-07-29T03:55:56.340Z,18.10
2022-07-29T04:06:02.034Z,17.90
2022-07-29T04:16:07.454Z,17.70
2022-07-29T04:26:11.927Z,17.80
2022-07-29T04:36:26.873Z,17.80
2022-07-29T04:46:32.982Z,17.50
2022-07-29T04:56:38.173Z,17.50
2022-07-29T05:06:41.864Z,17.50
2022-07-29T05:16:46.924Z,17.60
2022-07-29T05:26:50.652Z,17.80
2022-07-29T05:36:55.777Z,18.30
2022-07-29T05:46:59.449Z,18.30
2022-07-29T05:57:05.591Z,18.40
2022-07-29T06:07:09.740Z,18.60
2022-07-29T06:17:15.379Z,18.80
2022-07-29T06:27:19.274Z,19.20
2022-07-29T06:37:24.441Z,19.20
2022-07-29T06:47:30.056Z,19.30
2022-07-29T06:57:35.268Z,19.90
2022-07-29T07:07:39.046Z,20.40
2022-07-29T07:17:44.187Z,20.70
2022-07-29T07:27:48.102Z,20.60
2022-07-29T07:37:53.192Z,21.10
2022-07-29T07:47:57.164Z,21.50
2022-07-29T07:58:02.310Z,22.00
2022-07-29T08:08:11.192Z,22.50
2022-07-29T08:18:16.327Z,22.90
2022-07-29T08:28:20.237Z,22.90
2022-07-29T08:38:27.019Z,23.40
2022-07-29T08:48:31.438Z,23.60
2022-07-29T08:58:38.346Z,23.80
2022-07-29T09:08:42.872Z,23.80
2022-07-29T09:18:49.195Z,24.00
2022-07-29T09:28:52.912Z,24.20
2022-07-29T09:39:02.491Z,24.40
2022-07-29T09:49:10.067Z,24.80
2022-07-29T09:59:15.233Z,24.90
2022-07-29T10:09:18.987Z,25.20
2022-07-29T10:19:27.498Z,25.50
2022-07-29T10:29:32.713Z,26.00
2022-07-29T10:39:53.902Z,26.10
2022-07-29T10:50:01.353Z,26.10
2022-07-29T11:00:33.969Z,26.30
2022-07-29T11:10:37.766Z,25.90
2022-07-29T11:20:45.807Z,26.30
2022-07-29T11:30:54.487Z,26.70
2022-07-29T11:41:26.038Z,26.80
2022-07-29T11:51:32.877Z,26.80
2022-07-29T12:01:38.338Z,27.30
2022-07-29T12:11:42.196Z,27.50
2022-07-29T12:21:59.395Z,27.50
2022-07-29T12:32:05.317Z,27.30
2022-07-29T12:42:20.246Z,27.70
2022-07-29T12:52:29.681Z,28.10
2022-07-29T13:02:35.365Z,28.40
2022-07-29T13:12:42.315Z,28.10
2022-07-29T13:22:50.450Z,28.20
2022-07-29T13:32:56.036Z,28.10
2022-07-29T13:43:01.212Z,28.20
2022-07-29T13:53:05.041Z,28.30
2022-07-29T14:03:10.859Z,28.80
2022-07-29T14:13:24.943Z,28.80
2022-07-29T14:23:31.067Z,29.00
2022-07-29T14:33:34.735Z,28.60
2022-07-29T14:43:39.877Z,28.30
2022-07-29T14:53:44.064Z,27.90
2022-07-29T15:03:49.426Z,27.30
2022-07-29T15:13:53.077Z,24.50
2022-07-29T15:23:58.577Z,23.70
2022-07-29T15:34:05.927Z,24.20
2022-07-29T15:44:11.685Z,24.70
2022-07-29T15:54:17.510Z,25.30
2022-07-29T16:04:22.779Z,26.20
2022-07-29T16:14:28.453Z,25.80
2022-07-29T16:24:34.360Z,25.10
2022-07-29T16:34:38.022Z,24.50
2022-07-29T16:44:43.082Z,24.40
2022-07-29T16:54:47.165Z,24.50
2022-07-29T17:04:52.390Z,24.90
2022-07-29T17:14:56.098Z,25.20
2022-07-29T17:25:01.353Z,29.00
2022-07-29T17:35:25.874Z,28.10
2022-07-29T17:45:48.846Z,25.40
2022-07-29T17:55:53.066Z,24.20
2022-07-29T18:05:58.363Z,23.50
2022-07-29T18:16:04.586Z,23.20
2022-07-29T18:26:10.764Z,23.00
2022-07-29T18:36:14.534Z,22.70
2022-07-29T18:46:19.630Z,22.60
2022-07-29T18:56:24.161Z,22.30
2022-07-29T19:06:29.387Z,21.90
2022-07-29T19:16:33.365Z,21.70
2022-07-29T19:26:43.860Z,21.10
2022-07-29T19:36:47.569Z,21.00
2022-07-29T19:46:53.766Z,20.80
2022-07-29T19:56:57.647Z,20.80
2022-07-29T20:07:03.142Z,20.80
2022-07-29T20:17:07.152Z,20.80
2022-07-29T20:27:13.658Z,20.70
2022-07-29T20:37:20.469Z,20.60
2022-07-29T20:47:25.811Z,20.70
2022-07-29T20:57:39.265Z,20.60
2022-07-29T21:07:44.956Z,20.60
2022-07-29T21:17:49.357Z,20.70
2022-07-29T21:28:13.823Z,20.70
2022-07-29T21:38:18.389Z,20.70
2022-07-29T21:48:26.598Z,20.60
2022-07-29T21:58:30.791Z,20.30
2022-07-29T22:08:36.102Z,20.30
2022-07-29T22:18:40.198Z,20.40
2022-07-29T22:28:45.635Z,20.30
2022-07-29T22:38:51.952Z,19.90
2022-07-29T22:48:58.337Z,19.70
2022-07-29T22:59:13.686Z,19.30
2022-07-29T23:09:18.984Z,19.00
2022-07-29T23:19:22.818Z,19.20
2022-07-29T23:29:34.959Z,19.00
2022-07-29T23:39:40.476Z,19.10
2022-07-29T23:49:46.236Z,19.00
2022-07-29T23:59:50.108Z,19.20
